Upington, Upington Airport (FAUP)

NameUpington Airport
CityUpington
CountrySouth Africa
ICAOFAUP
IATAUTN
Altitude848 m
CoordinatesGoogle Map
Live Air TrafficLiveATC.net
METARFAUP 222000Z AUTO 34010KT //// // ////// 18/M03 Q1016
2019-07-22 20:00:00 Wind: North-Northwest (340°) 5.14 m/s - Visibility: 3401 m - Temperature: 18 °C - Dew point: -3 °C - Humidity: 23.9% - Pressure: 1016 hPa

Sorry, no flights used the airport in this database.